Time;durP1;ratioP1;P1;durP2;ratioP2;P2;SDS_P1;SDS_P2;PMS_P1;PMS_P2;Temp;Humidity;BMP_temperature;BMP_pressure;BME280_temperature;BME280_humidity;BME280_pressure;Samples;Min_cycle;Max_cycle;Signal;HPM_P1;HPM_P2
2022/08/28 00:02:25;;;;;;;1.40;0.60;;;;;;;17.47;58.52;101393.84;5014698;28;20064;-49
2022/08/28 00:04:50;;;;;;;1.02;0.60;;;;;;;17.36;58.76;101389.91;5014915;28;20038;-50
2022/08/28 00:07:17;;;;;;;2.83;0.88;;;;;;;17.34;58.90;101402.06;5014640;28;20041;-53
2022/08/28 00:09:43;;;;;;;3.17;0.70;;;;;;;17.29;58.87;101391.00;5015353;28;20026;-51
2022/08/28 00:12:08;;;;;;;1.40;0.50;;;;;;;17.27;59.00;101395.81;5015652;28;20455;-51
2022/08/28 00:14:35;;;;;;;2.35;0.68;;;;;;;17.27;59.03;101402.06;5015402;28;20034;-52
2022/08/28 00:17:01;;;;;;;1.08;0.50;;;;;;;17.12;59.33;101374.38;5016184;28;20033;-54
2022/08/28 00:19:27;;;;;;;1.65;0.60;;;;;;;17.28;59.35;101402.94;5014693;28;20026;-52
2022/08/28 00:21:53;;;;;;;1.10;0.50;;;;;;;17.28;59.30;101403.75;5015799;28;20041;-50
2022/08/28 00:24:20;;;;;;;2.38;0.70;;;;;;;17.27;59.35;101403.97;5015952;28;20030;-52
2022/08/28 00:29:32;;;;;;;1.25;0.70;;;;;;;17.12;60.03;101396.09;5014824;28;20034;-51
2022/08/28 00:31:58;;;;;;;0.93;0.50;;;;;;;17.09;60.08;101391.09;5016043;28;20117;-52
2022/08/28 00:34:24;;;;;;;1.40;0.82;;;;;;;17.02;60.12;101391.13;5015969;28;20029;-51
2022/08/28 00:36:50;;;;;;;1.63;1.00;;;;;;;16.94;60.35;101388.66;5015500;28;20037;-55
2022/08/28 00:39:16;;;;;;;1.13;0.55;;;;;;;16.92;60.41;101394.28;5015531;28;20389;-50
2022/08/28 00:41:43;;;;;;;2.30;0.50;;;;;;;16.82;60.28;101394.69;5014909;28;20033;-51
2022/08/28 00:44:20;;;;;;;2.38;0.70;;;;;;;16.78;60.54;101389.91;4997456;28;20034;-53
2022/08/28 00:46:48;;;;;;;0.75;0.57;;;;;;;16.73;60.99;101386.97;5015241;28;20038;-50
2022/08/28 00:49:18;;;;;;;2.33;0.80;;;;;;;16.75;60.80;101406.59;5014287;28;20022;-51
2022/08/28 00:54:32;;;;;;;0.85;0.50;;;;;;;16.70;61.10;101407.22;5012856;28;20041;-49
2022/08/28 00:57:02;;;;;;;1.52;0.70;;;;;;;16.66;60.85;101403.28;5013904;28;20041;-51
2022/08/28 00:59:29;;;;;;;1.70;1.05;;;;;;;16.67;61.05;101407.66;5012655;28;20026;-50
2022/08/28 01:01:57;;;;;;;1.20;1.10;;;;;;;16.61;61.24;101408.50;5013540;28;20109;-49
2022/08/28 01:04:27;;;;;;;1.67;1.05;;;;;;;16.52;61.09;101390.78;5016437;28;20356;-52
2022/08/28 01:06:55;;;;;;;1.30;0.90;;;;;;;16.54;61.15;101402.25;5032703;28;20044;-53
2022/08/28 01:09:23;;;;;;;2.40;1.20;;;;;;;16.51;61.75;101402.66;5017378;28;20026;-52
2022/08/28 01:11:55;;;;;;;2.58;1.50;;;;;;;16.39;62.09;101400.56;5016123;28;20041;-51
2022/08/28 01:14:22;;;;;;;3.05;1.30;;;;;;;16.30;61.70;101390.97;5016264;28;20032;-52
2022/08/28 01:16:54;;;;;;;3.20;1.23;;;;;;;16.36;61.81;101406.44;5015962;28;20053;-54
2022/08/28 01:19:28;;;;;;;5.13;1.20;;;;;;;16.28;62.03;101403.91;5017194;28;20030;-54
2022/08/28 01:22:06;;;;;;;1.42;1.02;;;;;;;16.26;62.24;101408.72;5016213;28;20030;-51
2022/08/28 01:24:33;;;;;;;2.25;1.10;;;;;;;16.23;62.35;101395.56;5016244;28;20030;-52
2022/08/28 01:26:59;;;;;;;2.20;1.05;;;;;;;16.13;62.33;101389.75;5017659;28;20375;-52
2022/08/28 01:29:27;;;;;;;1.70;1.00;;;;;;;15.97;62.96;101372.00;5017139;28;20063;-52
2022/08/28 01:31:54;;;;;;;1.98;0.90;;;;;;;16.11;62.59;101405.38;5016815;28;20065;-53
2022/08/28 01:34:21;;;;;;;2.28;0.98;;;;;;;16.04;63.00;101399.94;4999051;28;20030;-50
2022/08/28 01:36:47;;;;;;;1.83;1.17;;;;;;;16.03;62.71;101392.88;5016736;28;20115;-51
2022/08/28 01:39:18;;;;;;;1.05;0.80;;;;;;;16.01;62.84;101395.78;5016656;28;20034;-51
2022/08/28 01:41:46;;;;;;;1.40;0.73;;;;;;;15.88;63.05;101371.38;5015558;28;20029;-49
2022/08/28 01:44:14;;;;;;;1.92;0.90;;;;;;;16.01;62.97;101395.78;5016483;28;20415;-50
2022/08/28 01:46:42;;;;;;;3.90;1.00;;;;;;;15.97;63.37;101401.81;5016958;28;20438;-49
2022/08/28 01:49:10;;;;;;;1.95;0.80;;;;;;;15.89;63.64;101400.13;5016316;28;20030;-51
2022/08/28 01:51:37;;;;;;;2.58;0.80;;;;;;;15.84;63.86;101399.91;5015259;28;20042;-51
2022/08/28 01:54:04;;;;;;;2.13;0.73;;;;;;;15.76;64.34;101397.41;5015200;28;20569;-52
2022/08/28 01:56:31;;;;;;;1.25;0.70;;;;;;;15.74;63.92;101391.34;5016383;28;20034;-49
2022/08/28 01:58:57;;;;;;;2.92;0.90;;;;;;;15.67;64.09;101394.84;5015030;28;20057;-48
2022/08/28 02:01:23;;;;;;;1.25;0.80;;;;;;;15.68;64.60;101399.22;5014999;28;20038;-48
2022/08/28 02:03:51;;;;;;;2.53;1.02;;;;;;;15.59;65.26;101386.09;5016539;28;20034;-49
2022/08/28 02:06:18;;;;;;;5.80;0.80;;;;;;;15.58;65.22;101403.34;5016162;28;20426;-51
2022/08/28 02:08:44;;;;;;;4.25;1.00;;;;;;;15.52;64.66;101399.59;5015829;28;20069;-50
2022/08/28 02:11:11;;;;;;;1.60;0.80;;;;;;;15.48;65.28;101401.03;5016052;28;20030;-50
2022/08/28 02:13:38;;;;;;;2.03;0.73;;;;;;;15.47;65.27;101407.47;5013749;28;20030;-51
2022/08/28 02:16:06;;;;;;;2.25;0.90;;;;;;;15.38;65.62;101408.69;5014704;28;20477;-51
2022/08/28 02:18:32;;;;;;;1.38;0.70;;;;;;;15.42;65.14;101412.69;5014577;28;20474;-49
2022/08/28 02:20:58;;;;;;;2.45;0.75;;;;;;;15.45;64.86;101405.00;5014574;28;20459;-49
2022/08/28 02:23:23;;;;;;;1.75;0.70;;;;;;;15.42;65.56;101408.09;5016127;28;20048;-50
2022/08/28 02:25:49;;;;;;;1.60;0.60;;;;;;;15.41;65.11;101406.41;5016149;28;20022;-48
2022/08/28 02:28:15;;;;;;;1.27;0.52;;;;;;;15.42;64.62;101409.97;5014914;28;20033;-48
2022/08/28 02:30:41;;;;;;;2.45;0.60;;;;;;;15.40;64.73;101410.19;5016749;28;20044;-48
2022/08/28 02:33:07;;;;;;;0.80;0.50;;;;;;;15.33;64.75;101401.19;5016274;28;20453;-47
2022/08/28 02:35:32;;;;;;;0.50;0.50;;;;;;;15.37;64.70;101421.41;5016335;28;20033;-49
2022/08/28 02:37:58;;;;;;;0.73;0.50;;;;;;;15.33;64.95;101417.44;5015331;28;20467;-48
2022/08/28 02:40:24;;;;;;;1.00;0.57;;;;;;;15.29;65.03;101421.59;5014488;28;20065;-49
2022/08/28 02:42:51;;;;;;;0.95;0.60;;;;;;;15.19;64.97;101404.88;5015857;28;20038;-49
2022/08/28 02:45:18;;;;;;;1.13;0.57;;;;;;;15.17;65.16;101412.34;4998324;28;20104;-51
2022/08/28 02:47:45;;;;;;;2.63;0.47;;;;;;;15.11;65.31;101416.69;5016962;28;20525;-50
2022/08/28 02:50:14;;;;;;;1.77;0.40;;;;;;;15.12;65.19;101421.09;5020435;28;20479;-50
2022/08/28 02:52:42;;;;;;;2.17;0.60;;;;;;;15.06;65.35;101417.31;5022155;28;20045;-52
2022/08/28 02:55:11;;;;;;;0.80;0.40;;;;;;;15.04;65.12;101415.81;5021486;28;20148;-50
2022/08/28 02:57:37;;;;;;;1.35;0.60;;;;;;;15.03;65.12;101411.47;5019285;28;20026;-51
2022/08/28 03:00:06;;;;;;;1.92;0.65;;;;;;;15.03;65.07;101406.06;5021390;28;20030;-51
2022/08/28 03:02:32;;;;;;;0.90;0.40;;;;;;;15.05;65.18;101418.34;5018874;28;20080;-49
2022/08/28 03:04:59;;;;;;;1.33;0.70;;;;;;;15.02;65.50;101416.03;4999159;28;20030;-51
2022/08/28 03:07:26;;;;;;;3.97;0.80;;;;;;;14.94;65.59;101420.78;5014801;28;20030;-49
2022/08/28 03:09:52;;;;;;;1.45;0.80;;;;;;;14.80;66.30;101423.41;5015058;28;20037;-50
2022/08/28 03:12:22;;;;;;;1.50;0.70;;;;;;;14.78;65.92;101420.03;5015343;28;20030;-49
2022/08/28 03:14:50;;;;;;;3.03;0.77;;;;;;;14.77;65.60;101402.16;5015359;28;20038;-49
2022/08/28 03:17:16;;;;;;;4.03;0.98;;;;;;;14.77;65.44;101396.75;5013826;28;20124;-48
2022/08/28 03:19:42;;;;;;;2.08;0.73;;;;;;;14.78;65.70;101406.50;5014868;28;20036;-49
2022/08/28 03:22:07;;;;;;;1.10;0.73;;;;;;;14.73;65.97;101406.28;5015227;28;20034;-50
2022/08/28 03:24:33;;;;;;;1.30;0.52;;;;;;;14.63;65.98;101392.28;5014772;28;20042;-48
2022/08/28 03:27:00;;;;;;;1.15;0.70;;;;;;;14.70;66.04;101417.50;5014591;28;20026;-48
2022/08/28 03:29:27;;;;;;;2.35;0.60;;;;;;;14.64;65.75;101407.47;5014729;28;20041;-47
2022/08/28 03:31:52;;;;;;;0.65;0.60;;;;;;;14.65;66.20;101414.53;5014405;28;20511;-50
2022/08/28 03:34:18;;;;;;;2.17;0.60;;;;;;;14.58;66.14;101408.25;5014625;28;20109;-50
2022/08/28 03:36:44;;;;;;;0.85;0.50;;;;;;;14.58;65.88;101403.69;5015055;28;20034;-49
2022/08/28 03:39:10;;;;;;;3.63;0.70;;;;;;;14.58;66.22;101416.34;5014875;28;20034;-46
2022/08/28 03:41:36;;;;;;;4.03;0.52;;;;;;;14.52;66.12;101413.41;5014850;28;20524;-46
2022/08/28 03:44:02;;;;;;;1.55;0.70;;;;;;;14.52;66.04;101418.81;5013631;28;20076;-47
2022/08/28 03:46:31;;;;;;;1.67;0.80;;;;;;;14.53;66.26;101420.47;5014658;28;20033;-48
2022/08/28 03:48:58;;;;;;;0.65;0.55;;;;;;;14.47;66.06;101406.91;4997222;28;20128;-48
2022/08/28 03:51:26;;;;;;;4.97;1.20;;;;;;;14.45;65.96;101409.81;5014599;28;20034;-48
2022/08/28 03:53:52;;;;;;;1.58;0.80;;;;;;;14.44;66.11;101405.41;5015727;28;20375;-48
2022/08/28 03:56:21;;;;;;;2.50;0.80;;;;;;;14.42;66.62;101420.16;5013879;28;20458;-48
2022/08/28 03:58:50;;;;;;;1.63;0.80;;;;;;;14.36;66.75;101423.63;5013378;28;20029;-47
2022/08/28 04:01:16;;;;;;;6.35;0.80;;;;;;;14.28;66.67;101424.59;5014867;28;20514;-47
2022/08/28 04:03:42;;;;;;;0.63;0.63;;;;;;;14.25;67.07;101427.72;5014267;28;20045;-49
2022/08/28 04:06:07;;;;;;;0.98;0.70;;;;;;;14.18;67.11;101424.13;5014555;28;20034;-47
2022/08/28 04:08:33;;;;;;;5.57;0.70;;;;;;;14.16;67.05;101428.88;5014455;28;20030;-47
2022/08/28 04:10:59;;;;;;;0.70;0.60;;;;;;;14.08;67.25;101424.44;5014010;28;20108;-49
2022/08/28 04:13:26;;;;;;;2.95;1.05;;;;;;;14.08;67.17;101435.25;5014556;28;20133;-47
2022/08/28 04:16:10;;;;;;;1.52;0.90;;;;;;;14.06;67.81;101440.84;4997008;28;20026;-47
2022/08/28 04:18:38;;;;;;;2.00;0.85;;;;;;;14.00;68.04;101441.59;5015742;28;20480;-48
2022/08/28 04:21:07;;;;;;;3.00;1.10;;;;;;;13.84;67.85;101418.38;5014731;28;20467;-51
2022/08/28 04:23:37;;;;;;;2.05;1.00;;;;;;;13.98;67.71;101442.81;5012935;28;20459;-50
2022/08/28 04:26:05;;;;;;;0.50;0.50;;;;;;;13.96;67.61;101429.50;5014644;28;20120;-53
2022/08/28 04:28:31;;;;;;;1.90;1.00;;;;;;;13.83;67.86;101419.41;5014502;28;20030;-47
2022/08/28 04:30:58;;;;;;;1.10;0.70;;;;;;;13.79;67.76;101420.00;5013918;28;20065;-47
2022/08/28 04:33:25;;;;;;;0.93;0.70;;;;;;;13.85;67.71;101430.84;5014018;28;20036;-47
2022/08/28 04:35:51;;;;;;;1.38;0.90;;;;;;;13.88;67.95;101429.66;5012612;28;20030;-47
2022/08/28 04:38:18;;;;;;;2.92;1.00;;;;;;;13.88;67.74;101440.44;5017141;28;20104;-47
2022/08/28 04:40:43;;;;;;;2.30;1.05;;;;;;;13.86;67.76;101429.00;5017762;28;20045;-47
2022/08/28 04:43:10;;;;;;;4.28;1.55;;;;;;;13.88;67.88;101429.66;5016707;28;20025;-47
2022/08/28 04:45:42;;;;;;;1.83;0.95;;;;;;;13.92;67.79;101433.63;5016564;28;20036;-47
2022/08/28 04:48:11;;;;;;;4.57;1.13;;;;;;;13.93;67.97;101438.84;5017578;28;20044;-46
2022/08/28 04:50:42;;;;;;;1.15;1.02;;;;;;;13.92;67.89;101441.72;5018122;28;20030;-47
2022/08/28 04:53:09;;;;;;;1.92;1.00;;;;;;;13.91;67.38;101449.00;5017151;28;20052;-48
2022/08/28 04:55:40;;;;;;;1.45;0.90;;;;;;;13.94;67.41;101448.59;5017700;28;20124;-48
2022/08/28 04:58:06;;;;;;;1.13;1.00;;;;;;;13.88;68.22;101445.84;5017653;28;20479;-48
2022/08/28 05:00:32;;;;;;;1.23;0.95;;;;;;;13.84;68.40;101445.38;5017703;28;20034;-48
2022/08/28 05:02:58;;;;;;;1.95;0.93;;;;;;;13.90;68.10;101446.50;5017501;28;20113;-48
2022/08/28 05:05:24;;;;;;;1.02;0.90;;;;;;;13.91;67.87;101445.44;5017967;28;20030;-47
2022/08/28 05:07:49;;;;;;;3.03;1.02;;;;;;;13.91;67.97;101456.25;5017481;28;20351;-50
2022/08/28 05:10:15;;;;;;;1.65;1.25;;;;;;;13.87;68.15;101449.56;5017223;28;20366;-47
2022/08/28 05:12:41;;;;;;;1.02;0.95;;;;;;;13.82;68.51;101447.44;5017365;28;20034;-48
2022/08/28 05:15:08;;;;;;;3.28;0.80;;;;;;;13.87;68.00;101449.56;5015660;28;20125;-49
2022/08/28 05:17:34;;;;;;;2.92;1.10;;;;;;;13.90;67.50;101450.00;5015675;28;20068;-48
2022/08/28 05:19:59;;;;;;;1.95;0.77;;;;;;;13.91;67.22;101443.59;5017137;28;20443;-47
2022/08/28 05:22:27;;;;;;;1.17;1.00;;;;;;;13.95;67.48;101444.06;5017114;28;20033;-48
2022/08/28 05:24:53;;;;;;;3.03;0.90;;;;;;;13.96;67.22;101450.28;5016955;28;20112;-48
2022/08/28 05:27:19;;;;;;;1.60;0.73;;;;;;;13.90;67.52;101443.78;5015993;28;20515;-49
2022/08/28 05:29:45;;;;;;;1.55;0.90;;;;;;;13.95;67.81;101446.75;5016494;28;20064;-48
2022/08/28 05:32:12;;;;;;;2.03;1.13;;;;;;;13.97;67.80;101457.34;5016106;28;20053;-48
2022/08/28 05:34:38;;;;;;;3.30;1.20;;;;;;;13.94;68.24;101462.09;5016957;28;20045;-47
2022/08/28 05:37:05;;;;;;;4.32;2.03;;;;;;;13.82;69.30;101444.75;5017512;28;20026;-47
2022/08/28 05:39:31;;;;;;;3.10;1.75;;;;;;;13.75;70.01;101444.66;5016955;28;20041;-47
2022/08/28 05:41:56;;;;;;;3.95;2.33;;;;;;;13.67;71.29;101455.59;5017160;28;20030;-48
2022/08/28 05:44:23;;;;;;;3.70;2.00;;;;;;;13.74;70.98;101459.19;5015570;28;20059;-48
2022/08/28 05:46:49;;;;;;;1.60;1.48;;;;;;;13.86;70.00;101451.44;5016639;28;20033;-48
2022/08/28 05:49:17;;;;;;;1.65;1.55;;;;;;;13.72;70.94;101441.50;5015413;28;20062;-47
2022/08/28 05:51:43;;;;;;;5.15;1.60;;;;;;;13.97;70.50;101469.00;5015468;28;20084;-47
2022/08/28 05:54:10;;;;;;;2.45;1.25;;;;;;;14.00;69.83;101454.28;5016551;28;20382;-47
2022/08/28 05:56:39;;;;;;;3.38;2.20;;;;;;;14.07;71.17;101472.22;5015343;28;20030;-48
2022/08/28 05:59:06;;;;;;;2.17;1.40;;;;;;;14.16;70.06;101469.41;5016405;28;20367;-48
2022/08/28 06:01:35;;;;;;;2.20;1.42;;;;;;;14.19;70.20;101474.41;5016661;28;20025;-47
2022/08/28 06:04:07;;;;;;;1.95;1.50;;;;;;;14.28;69.73;101473.25;5016348;28;20040;-48
2022/08/28 06:06:35;;;;;;;5.00;2.05;;;;;;;14.32;69.92;101464.56;5031301;28;20041;-49
2022/08/28 06:09:08;;;;;;;3.45;1.75;;;;;;;14.28;71.02;101484.06;4998840;28;20021;-49
2022/08/28 06:11:34;;;;;;;2.05;1.40;;;;;;;14.23;70.06;101471.13;5015099;28;20030;-51
2022/08/28 06:14:08;;;;;;;2.05;1.40;;;;;;;14.30;70.87;101482.84;5014828;28;20368;-48
2022/08/28 06:16:36;;;;;;;1.25;1.15;;;;;;;14.31;70.93;101491.78;5015711;28;20395;-49
2022/08/28 06:19:03;;;;;;;1.52;1.25;;;;;;;14.39;69.95;101485.41;5014781;28;20167;-48
2022/08/28 06:21:29;;;;;;;3.88;2.22;;;;;;;14.46;69.78;101489.00;5016153;28;20061;-49
2022/08/28 06:23:55;;;;;;;2.70;1.33;;;;;;;14.48;69.37;101493.19;5015601;28;20096;-48
2022/08/28 06:26:21;;;;;;;2.17;1.55;;;;;;;14.59;69.26;101501.84;5015277;28;20036;-48
2022/08/28 06:28:47;;;;;;;3.05;1.73;;;;;;;14.59;69.97;101512.66;5015861;28;20025;-48
2022/08/28 06:31:13;;;;;;;4.03;1.45;;;;;;;14.56;69.71;101507.59;5015107;28;20113;-49
2022/08/28 06:33:39;;;;;;;3.30;1.30;;;;;;;14.60;69.85;101512.47;5016191;28;20030;-48
2022/08/28 06:36:06;;;;;;;2.03;1.33;;;;;;;14.55;69.42;101500.53;5015623;28;20034;-49
2022/08/28 06:38:32;;;;;;;6.07;1.40;;;;;;;14.59;69.63;101507.25;4997884;28;20394;-48
2022/08/28 06:40:58;;;;;;;1.40;1.20;;;;;;;14.59;69.65;101512.66;5015822;28;20105;-49
2022/08/28 06:43:27;;;;;;;2.45;1.10;;;;;;;14.54;69.85;101502.38;5015627;28;20030;-52
2022/08/28 06:45:54;;;;;;;1.48;1.38;;;;;;;14.60;69.72;101508.91;5015189;28;20372;-49
2022/08/28 06:48:23;;;;;;;2.05;1.20;;;;;;;14.61;69.38;101510.59;5014162;28;20053;-52
2022/08/28 06:50:51;;;;;;;1.75;1.50;;;;;;;14.63;69.56;101508.53;5015377;28;20038;-49
2022/08/28 06:53:20;;;;;;;2.45;1.88;;;;;;;14.60;69.65;101517.88;5014236;28;20360;-49
2022/08/28 06:55:56;;;;;;;2.53;1.48;;;;;;;14.58;69.84;101510.97;5014504;28;20038;-51
2022/08/28 06:58:22;;;;;;;2.00;1.52;;;;;;;14.41;69.90;101489.59;5014953;28;20025;-48
2022/08/28 07:00:49;;;;;;;2.25;1.92;;;;;;;14.45;70.49;101512.50;5017497;28;20045;-49
2022/08/28 07:03:15;;;;;;;4.03;2.13;;;;;;;14.64;69.83;101526.44;5019809;28;20038;-48
2022/08/28 07:05:41;;;;;;;2.22;1.90;;;;;;;14.74;69.47;101524.22;5020696;28;20105;-48
2022/08/28 07:08:07;;;;;;;2.97;2.60;;;;;;;14.85;69.28;101525.56;5019134;28;20030;-48
2022/08/28 07:10:32;;;;;;;4.50;3.38;;;;;;;14.90;68.97;101521.25;5018086;28;20069;-49
2022/08/28 07:12:59;;;;;;;5.78;4.15;;;;;;;14.92;71.07;101520.22;5017130;28;20029;-50
2022/08/28 07:15:26;;;;;;;16.33;6.18;;;;;;;14.87;72.84;101526.19;5016303;28;20029;-48
2022/08/28 07:17:51;;;;;;;5.95;3.92;;;;;;;14.91;71.64;101522.06;5016011;28;20033;-51
2022/08/28 07:20:17;;;;;;;5.47;2.92;;;;;;;14.94;72.60;101529.78;5016388;28;20029;-50
2022/08/28 07:22:43;;;;;;;6.13;2.95;;;;;;;15.04;71.71;101535.72;5016836;28;20030;-49
2022/08/28 07:25:10;;;;;;;6.10;2.83;;;;;;;15.09;72.40;101535.09;5015803;28;20058;-52
2022/08/28 07:27:37;;;;;;;3.05;2.40;;;;;;;15.17;72.26;101526.00;5017367;28;20029;-48
2022/08/28 07:30:05;;;;;;;3.97;2.67;;;;;;;15.23;72.19;101544.13;4998215;28;20382;-47
2022/08/28 07:32:33;;;;;;;5.15;2.38;;;;;;;15.25;72.45;101534.81;5015633;28;20084;-50
2022/08/28 07:34:59;;;;;;;15.98;3.00;;;;;;;15.35;72.50;101534.44;5014352;28;20034;-48
2022/08/28 07:37:25;;;;;;;4.07;2.00;;;;;;;15.44;71.76;101532.44;5015538;28;20033;-49
2022/08/28 07:39:51;;;;;;;5.80;2.33;;;;;;;15.52;72.13;101542.25;5000232;28;20418;-48
2022/08/28 07:45:03;;;;;;;5.40;2.92;;;;;;;15.62;71.52;101534.59;5016314;28;20026;-51
2022/08/28 07:47:31;;;;;;;7.88;2.40;;;;;;;15.76;71.47;101541.78;5014924;28;20108;-48
2022/08/28 07:49:59;;;;;;;2.08;1.75;;;;;;;15.85;70.94;101537.84;5023289;28;20045;-50
2022/08/28 07:52:26;;;;;;;8.60;2.58;;;;;;;15.87;70.92;101530.34;5014561;28;20045;-49
2022/08/28 07:54:53;;;;;;;5.03;2.70;;;;;;;16.02;70.73;101541.03;5015090;28;20026;-51
2022/08/28 07:57:20;;;;;;;7.00;2.35;;;;;;;16.10;70.36;101531.88;5014245;28;20034;-48
2022/08/28 07:59:47;;;;;;;6.32;2.60;;;;;;;16.21;70.22;101536.75;5014906;28;20025;-48
2022/08/28 08:02:13;;;;;;;3.85;1.85;;;;;;;16.24;69.94;101527.34;4997469;28;20026;-48
2022/08/28 08:04:40;;;;;;;7.85;1.92;;;;;;;16.33;69.73;101538.84;5014884;28;20036;-51
2022/08/28 08:07:07;;;;;;;6.40;2.65;;;;;;;16.38;69.09;101536.34;5018650;28;20037;-48
2022/08/28 08:09:40;;;;;;;7.65;2.45;;;;;;;16.49;68.80;101545.75;5017156;28;20026;-50
2022/08/28 08:12:08;;;;;;;5.20;1.83;;;;;;;16.57;68.44;101546.38;5017292;28;20049;-53
2022/08/28 08:14:33;;;;;;;8.10;1.90;;;;;;;16.60;68.06;101529.72;5017336;28;20088;-49
2022/08/28 08:17:01;;;;;;;3.35;1.88;;;;;;;16.73;67.88;101536.16;5014511;28;20026;-49
2022/08/28 08:19:27;;;;;;;2.42;1.70;;;;;;;16.83;66.65;101544.78;5015213;28;20064;-48
2022/08/28 08:21:53;;;;;;;7.78;1.80;;;;;;;16.84;66.48;101519.28;5029594;28;20030;-51
2022/08/28 08:24:21;;;;;;;8.02;1.50;;;;;;;17.00;66.43;101543.28;5013523;28;20068;-48
2022/08/28 08:26:48;;;;;;;5.03;1.80;;;;;;;17.09;66.23;101541.22;5012608;28;20034;-48
2022/08/28 08:29:14;;;;;;;3.10;1.33;;;;;;;17.17;65.70;101545.59;5015004;28;20029;-48
2022/08/28 08:31:40;;;;;;;5.05;1.80;;;;;;;17.27;65.50;101543.25;5014874;28;20085;-54
2022/08/28 08:34:06;;;;;;;3.08;1.33;;;;;;;17.36;64.67;101546.59;5013275;28;20034;-48
2022/08/28 08:36:34;;;;;;;3.30;1.13;;;;;;;17.46;64.66;101538.84;5013128;28;20452;-51
2022/08/28 08:39:00;;;;;;;3.90;1.20;;;;;;;17.43;63.79;101522.97;4997012;28;20026;-49
2022/08/28 08:41:47;;;;;;;7.68;1.83;;;;;;;17.60;63.11;101543.16;5012860;28;20068;-49
2022/08/28 08:44:31;;;;;;;5.93;1.40;;;;;;;17.69;63.01;101535.63;5013129;28;20435;-50
2022/08/28 08:47:11;;;;;;;7.10;1.50;;;;;;;17.84;62.85;101535.34;5014053;28;20042;-49
2022/08/28 08:49:42;;;;;;;1.88;1.10;;;;;;;18.04;62.39;101537.19;5014145;28;20030;-48
2022/08/28 08:52:33;;;;;;;6.65;1.33;;;;;;;18.25;61.42;101541.47;5014119;28;20050;-48
2022/08/28 08:55:18;;;;;;;3.45;1.00;;;;;;;18.26;60.69;101524.09;5000049;28;20050;-51
2022/08/28 08:57:47;;;;;;;5.68;1.20;;;;;;;18.48;60.11;101535.44;5014778;28;20429;-50
2022/08/28 09:00:14;;;;;;;6.05;1.30;;;;;;;18.65;59.98;101531.16;5018251;28;20040;-49
2022/08/28 09:02:48;;;;;;;6.03;1.10;;;;;;;18.84;59.44;101529.34;5016072;28;20033;-48
2022/08/28 09:05:19;;;;;;;1.65;0.82;;;;;;;19.02;58.75;101530.44;5014163;28;20457;-53
2022/08/28 09:07:55;;;;;;;3.50;1.20;;;;;;;19.25;58.06;101527.09;5014058;28;20034;-49
2022/08/28 09:10:23;;;;;;;4.53;1.52;;;;;;;19.43;57.91;101524.38;5013703;28;20475;-50
2022/08/28 09:13:05;;;;;;;8.40;1.63;;;;;;;19.90;56.73;101518.38;5013549;28;20037;-52
2022/08/28 09:15:34;;;;;;;4.70;1.38;;;;;;;20.38;55.23;101535.78;5028946;28;20149;-48
2022/08/28 09:18:11;;;;;;;11.40;1.67;;;;;;;20.78;52.82;101496.94;5013508;28;20026;-49
2022/08/28 09:20:37;;;;;;;4.65;1.10;;;;;;;22.67;49.97;101527.31;5013902;28;20100;-48
2022/08/28 09:23:03;;;;;;;7.47;1.80;;;;;;;23.86;46.58;101529.88;5014850;28;20025;-50
2022/08/28 09:25:57;;;;;;;5.93;1.33;;;;;;;23.81;44.42;101524.31;5016891;28;20133;-51
2022/08/28 09:28:29;;;;;;;2.55;1.00;;;;;;;23.42;46.22;101527.94;5016030;28;20021;-50
2022/08/28 09:31:06;;;;;;;5.25;0.93;;;;;;;23.43;47.60;101528.75;5016883;28;20491;-52
2022/08/28 09:33:39;;;;;;;1.55;0.80;;;;;;;24.76;45.84;101523.88;5017343;28;20034;-48
2022/08/28 09:36:37;;;;;;;5.07;1.17;;;;;;;25.75;41.21;101519.53;5017552;28;20042;-48
2022/08/28 09:39:15;;;;;;;3.00;1.33;;;;;;;25.57;43.88;101522.75;5017096;28;20032;-49
2022/08/28 09:45:17;;;;;;;2.70;1.10;;;;;;;26.60;42.63;101508.16;5015646;28;20653;-50
2022/08/28 09:47:47;;;;;;;3.35;1.35;;;;;;;27.30;39.45;101524.03;5015849;28;20034;-51
2022/08/28 09:50:20;;;;;;;2.35;1.02;;;;;;;28.46;39.57;101522.06;5016296;28;20061;-50
2022/08/28 09:52:46;;;;;;;2.83;1.23;;;;;;;29.28;38.40;101515.81;5019144;28;20052;-51
2022/08/28 09:55:22;;;;;;;2.08;0.90;;;;;;;28.04;36.30;101520.72;5017040;28;20061;-51
2022/08/28 09:57:48;;;;;;;1.35;0.80;;;;;;;29.09;38.45;101508.22;5015406;28;20022;-50
2022/08/28 10:00:14;;;;;;;1.33;0.80;;;;;;;29.75;37.11;101499.44;5015504;28;20037;-51
2022/08/28 10:02:50;;;;;;;3.55;1.10;;;;;;;28.50;32.98;101507.38;5016420;28;20083;-50
2022/08/28 10:05:30;;;;;;;5.00;1.30;;;;;;;28.63;35.08;101510.63;5016601;28;20466;-52
2022/08/28 10:08:03;;;;;;;3.13;1.20;;;;;;;29.26;36.66;101495.91;5015416;28;20018;-49
2022/08/28 10:10:48;;;;;;;4.05;0.90;;;;;;;27.51;36.05;101488.94;5016786;28;20113;-52
2022/08/28 10:13:19;;;;;;;2.80;1.00;;;;;;;26.82;38.10;101505.09;5015294;28;20026;-49
2022/08/28 10:16:21;;;;;;;3.92;1.10;;;;;;;26.57;35.34;101511.41;5016165;28;20041;-50
2022/08/28 10:19:02;;;;;;;2.97;1.17;;;;;;;25.69;39.60;101493.09;5015569;28;20029;-52
2022/08/28 10:21:43;;;;;;;2.45;1.00;;;;;;;27.31;36.93;101506.41;5016245;28;20045;-49
2022/08/28 10:24:40;;;;;;;2.35;1.08;;;;;;;26.08;38.41;101498.19;5015143;28;20045;-49
2022/08/28 10:27:36;;;;;;;2.60;0.93;;;;;;;26.52;39.23;101511.41;5019346;28;20030;-52
2022/08/28 10:30:09;;;;;;;2.90;1.20;;;;;;;27.74;37.46;101503.19;5015280;28;20026;-52
2022/08/28 10:33:14;;;;;;;1.15;0.70;;;;;;;28.34;33.92;101501.16;5015985;28;20379;-49
2022/08/28 10:35:55;;;;;;;2.03;1.15;;;;;;;27.04;35.43;101490.16;5002577;28;20463;-52
2022/08/28 10:38:41;;;;;;;3.58;0.90;;;;;;;28.32;34.05;101506.13;5015726;28;20033;-50
2022/08/28 10:41:18;;;;;;;1.20;0.85;;;;;;;29.82;31.96;101489.66;5015983;28;20140;-52
2022/08/28 10:43:47;;;;;;;1.27;0.82;;;;;;;29.16;34.04;101496.84;5015180;28;20396;-50
2022/08/28 10:46:19;;;;;;;2.60;0.90;;;;;;;27.87;34.22;101498.97;5014871;28;20482;-48
2022/08/28 10:48:54;;;;;;;1.85;0.70;;;;;;;26.95;35.15;101506.47;5015482;28;20049;-51
2022/08/28 10:51:33;;;;;;;3.25;0.80;;;;;;;27.40;31.72;101485.41;5015676;28;20040;-51
2022/08/28 10:54:21;;;;;;;1.92;0.70;;;;;;;27.41;35.96;101497.25;5014142;28;20068;-49
2022/08/28 10:56:55;;;;;;;0.50;0.50;;;;;;;26.97;36.15;101501.50;5014553;28;20077;-48
2022/08/28 10:59:21;;;;;;;;;;;;;;;28.29;33.13;101503.16;5015848;28;20026;-50
2022/08/28 11:01:48;;;;;;;1.17;0.57;;;;;;;27.52;35.15;101490.56;5015167;28;20012;-51
2022/08/28 11:04:19;;;;;;;3.35;0.55;;;;;;;29.04;32.12;101488.91;5015784;28;20033;-50
2022/08/28 11:06:55;;;;;;;1.27;0.90;;;;;;;28.18;31.65;101503.22;5015394;28;20033;-52
2022/08/28 11:09:34;;;;;;;1.77;0.70;;;;;;;26.84;33.10;101488.31;5015136;28;20034;-50
2022/08/28 11:12:08;;;;;;;3.45;0.88;;;;;;;27.52;35.30;101501.63;5031170;28;20037;-50
2022/08/28 11:14:36;;;;;;;;;;;;;;;26.88;32.38;101503.16;5015937;28;20071;-49
2022/08/28 11:17:06;;;;;;;3.45;0.90;;;;;;;26.82;35.60;101499.59;5033161;28;19909;-51
2022/08/28 11:20:01;;;;;;;10.00;1.10;;;;;;;27.50;31.93;101490.03;5015251;28;20022;-49
2022/08/28 11:22:35;;;;;;;1.27;0.77;;;;;;;27.41;33.72;101486.22;5018444;28;20533;-52
2022/08/28 11:25:25;;;;;;;1.63;0.80;;;;;;;27.21;35.35;101493.44;5019099;28;20029;-49
2022/08/28 11:28:17;;;;;;;1.52;0.70;;;;;;;28.10;30.19;101495.53;5016512;28;20033;-51
2022/08/28 11:30:46;;;;;;;2.78;0.80;;;;;;;29.24;30.53;101476.00;5001874;28;20040;-49
2022/08/28 11:33:40;;;;;;;2.30;0.57;;;;;;;30.96;26.28;101481.16;5016465;28;20030;-51
2022/08/28 11:36:46;;;;;;;3.63;0.70;;;;;;;31.30;24.79;101473.56;5014573;28;20080;-51
2022/08/28 11:39:20;;;;;;;1.88;0.93;;;;;;;31.86;24.98;101471.53;5003623;28;20030;-51
2022/08/28 11:42:15;;;;;;;3.92;0.85;;;;;;;33.44;24.82;101465.72;5015421;28;20034;-51
2022/08/28 11:44:44;;;;;;;4.05;1.40;;;;;;;34.34;24.66;101459.53;5014303;28;20045;-49
2022/08/28 11:47:34;;;;;;;1.10;0.60;;;;;;;32.35;23.20;101462.25;5014188;28;20038;-50
2022/08/28 11:50:17;;;;;;;2.03;0.90;;;;;;;32.55;26.09;101460.91;5014763;28;20092;-49
2022/08/28 11:53:01;;;;;;;1.10;0.43;;;;;;;32.84;22.95;101467.97;5014135;28;20046;-50